Time;durP1;ratioP1;P1;durP2;ratioP2;P2;SDS_P1;SDS_P2;PMS_P1;PMS_P2;Temp;Humidity;BMP_temperature;BMP_pressure;BME280_temperature;BME280_humidity;BME280_pressure;Samples;Min_cycle;Max_cycle;Signal;HPM_P1;HPM_P2
2020/12/29 00:01:49;0.00;0.00;0.62;0.00;0.00;0.62;;;;;9.30;1.00;;;;;;2284747;60;2004;-87
2020/12/29 00:04:19;0.00;0.00;0.62;0.00;0.00;0.62;;;;;9.00;1.00;;;;;;2277892;60;1107;-87
2020/12/29 00:06:47;0.00;0.00;0.62;0.00;0.00;0.62;;;;;8.50;1.00;;;;;;2284884;60;1143;-88
2020/12/29 00:09:16;37402.00;0.12;65.39;0.00;0.00;0.62;;;;;8.20;1.00;;;;;;2284907;60;1363;-87
2020/12/29 00:11:43;0.00;0.00;0.62;0.00;0.00;0.62;;;;;8.70;1.00;;;;;;2284829;60;1085;-87
2020/12/29 00:14:10;0.00;0.00;0.62;0.00;0.00;0.62;;;;;8.70;1.00;;;;;;2284877;60;1077;-86
2020/12/29 00:16:37;10472.00;0.03;18.77;0.00;0.00;0.62;;;;;8.60;1.00;;;;;;2284975;60;1025;-89
2020/12/29 00:19:04;0.00;0.00;0.62;0.00;0.00;0.62;;;;;8.90;1.00;;;;;;2284883;60;1868;-87
2020/12/29 00:21:31;0.00;0.00;0.62;0.00;0.00;0.62;;;;;8.60;1.00;;;;;;2284917;60;1915;-86
2020/12/29 00:23:57;44583.00;0.15;77.82;0.00;0.00;0.62;;;;;8.30;1.00;;;;;;2284951;60;1003;-87
2020/12/29 00:26:26;21620.00;0.07;38.08;0.00;0.00;0.62;;;;;8.40;1.00;;;;;;2284923;60;1090;-86
2020/12/29 00:28:54;0.00;0.00;0.62;0.00;0.00;0.62;;;;;8.40;1.00;;;;;;2284921;60;1430;-87
2020/12/29 00:31:22;0.00;0.00;0.62;0.00;0.00;0.62;;;;;8.60;1.00;;;;;;2274506;60;1058;-86
2020/12/29 00:33:50;55121.00;0.18;96.04;0.00;0.00;0.62;;;;;8.10;1.00;;;;;;2284881;60;976;-87
2020/12/29 00:36:18;0.00;0.00;0.62;0.00;0.00;0.62;;;;;7.80;1.00;;;;;;2284918;60;1165;-87
2020/12/29 00:38:45;0.00;0.00;0.62;0.00;0.00;0.62;;;;;8.30;1.00;;;;;;2284846;60;1315;-86
2020/12/29 00:41:12;0.00;0.00;0.62;0.00;0.00;0.62;;;;;8.80;1.00;;;;;;2284848;60;1996;-85
2020/12/29 00:43:40;0.00;0.00;0.62;0.00;0.00;0.62;;;;;8.90;1.00;;;;;;2281143;60;1046;-86
2020/12/29 00:46:07;0.00;0.00;0.62;0.00;0.00;0.62;;;;;8.70;1.00;;;;;;2284878;60;1120;-86
2020/12/29 00:48:34;0.00;0.00;0.62;0.00;0.00;0.62;;;;;8.70;1.00;;;;;;2277727;60;1411;-86
2020/12/29 00:51:05;0.00;0.00;0.62;0.00;0.00;0.62;;;;;8.40;1.00;;;;;;2284857;60;1140;-87
2020/12/29 00:53:32;0.00;0.00;0.62;0.00;0.00;0.62;;;;;8.60;1.00;;;;;;2284792;60;1152;-86
2020/12/29 00:56:00;20655.00;0.07;36.40;0.00;0.00;0.62;;;;;8.90;1.00;;;;;;2274407;61;1013;-87
2020/12/29 00:58:27;0.00;0.00;0.62;0.00;0.00;0.62;;;;;9.00;1.00;;;;;;2284824;60;1296;-86
2020/12/29 01:00:54;0.00;0.00;0.62;0.00;0.00;0.62;;;;;9.10;1.00;;;;;;2284801;60;1998;-87
2020/12/29 01:03:20;13154.00;0.04;23.41;0.00;0.00;0.62;;;;;9.10;1.00;;;;;;2284757;60;1771;-87
2020/12/29 01:05:48;0.00;0.00;0.62;0.00;0.00;0.62;;;;;9.30;1.00;;;;;;2284861;60;1086;-87
2020/12/29 01:08:15;8238.00;0.03;14.90;0.00;0.00;0.62;;;;;9.50;1.00;;;;;;2284728;60;1448;-85
2020/12/29 01:10:43;0.00;0.00;0.62;0.00;0.00;0.62;;;;;9.50;1.00;;;;;;2285432;60;1078;-87
2020/12/29 01:13:10;958.00;0.00;2.28;0.00;0.00;0.62;;;;;9.30;1.00;;;;;;2285463;60;1251;-86
2020/12/29 01:15:37;911.00;0.00;2.20;0.00;0.00;0.62;;;;;9.60;1.00;;;;;;2285523;60;1078;-87
2020/12/29 01:18:04;37660.00;0.13;65.84;0.00;0.00;0.62;;;;;9.50;1.00;;;;;;2285485;60;1337;-87
2020/12/29 01:20:30;80193.00;0.27;139.37;4706.00;0.02;8.78;;;;;9.60;1.00;;;;;;2285442;60;2006;-85
2020/12/29 01:22:57;0.00;0.00;0.62;0.00;0.00;0.62;;;;;9.80;1.00;;;;;;2285444;60;1067;-85
2020/12/29 01:25:24;47300.00;0.16;82.52;0.00;0.00;0.62;;;;;10.00;1.00;;;;;;2285496;60;1085;-85
2020/12/29 01:27:52;0.00;0.00;0.62;0.00;0.00;0.62;;;;;10.40;1.00;;;;;;2285467;60;1413;-85
2020/12/29 01:30:19;0.00;0.00;0.62;0.00;0.00;0.62;;;;;10.70;1.00;;;;;;2285441;60;1205;-85
2020/12/29 01:32:46;0.00;0.00;0.62;0.00;0.00;0.62;;;;;11.00;1.00;;;;;;2278379;60;1050;-85
2020/12/29 01:35:13;25772.00;0.09;45.26;0.00;0.00;0.62;;;;;11.20;1.00;;;;;;2281717;60;1047;-85
2020/12/29 01:37:42;0.00;0.00;0.62;0.00;0.00;0.62;;;;;11.50;1.00;;;;;;2278351;60;1426;-85
2020/12/29 01:40:10;0.00;0.00;0.62;0.00;0.00;0.62;;;;;11.30;1.00;;;;;;2278369;60;1175;-85
2020/12/29 01:42:37;0.00;0.00;0.62;0.00;0.00;0.62;;;;;11.60;1.00;;;;;;2280880;61;2016;-85
2020/12/29 01:45:07;0.00;0.00;0.62;0.00;0.00;0.62;;;;;11.20;1.00;;;;;;2277528;61;1041;-84
2020/12/29 01:47:36;0.00;0.00;0.62;0.00;0.00;0.62;;;;;11.20;1.00;;;;;;2280881;61;1435;-85
2020/12/29 01:50:09;0.00;0.00;0.62;0.00;0.00;0.62;;;;;11.20;1.00;;;;;;2280918;61;1071;-86
2020/12/29 01:52:37;216262.00;0.72;373.91;81330.00;0.27;141.33;;;;;11.10;1.00;;;;;;2280963;61;991;-85
2020/12/29 01:55:04;168271.00;0.56;291.29;84048.00;0.28;146.03;;;;;11.00;1.00;;;;;;2280911;61;1102;-85
2020/12/29 01:57:32;166005.00;0.55;287.38;79157.00;0.26;137.58;;;;;10.80;1.00;;;;;;2280859;61;1415;-86
2020/12/29 01:59:59;170812.00;0.57;295.67;87355.00;0.29;151.74;;;;;10.40;1.00;;;;;;2281846;60;1181;-86
2020/12/29 02:02:27;171613.00;0.57;297.04;86636.00;0.29;150.50;;;;;10.00;1.00;;;;;;2285348;60;2010;-85
2020/12/29 02:04:54;198431.00;0.66;343.22;85452.00;0.28;148.45;;;;;10.00;1.00;;;;;;2274965;60;1065;-85
2020/12/29 02:07:20;182481.00;0.61;315.76;91312.00;0.30;158.57;;;;;9.40;1.00;;;;;;2285338;60;1307;-86
2020/12/29 02:09:48;171041.00;0.57;296.06;89441.00;0.30;155.34;;;;;9.60;1.00;;;;;;2285362;60;1139;-86
2020/12/29 02:12:22;172926.00;0.58;299.31;94152.00;0.31;163.48;;;;;8.90;1.00;;;;;;2285356;60;1113;-86
2020/12/29 02:14:49;211910.00;0.71;366.42;89012.00;0.30;154.60;;;;;8.70;1.00;;;;;;2285299;60;1108;-86
2020/12/29 02:17:15;267467.00;0.89;461.99;87848.00;0.29;152.59;;;;;8.80;1.00;;;;;;2285338;60;1320;-86
2020/12/29 02:19:42;225671.00;0.75;390.10;76457.00;0.25;132.92;;;;;9.00;1.00;;;;;;2285313;60;1132;-87
2020/12/29 02:22:09;263709.00;0.88;455.53;79233.00;0.26;137.71;;;;;8.50;1.00;;;;;;2285101;60;1915;-86
2020/12/29 02:24:37;218829.00;0.73;378.33;84131.00;0.28;146.17;;;;;8.60;1.00;;;;;;2281587;60;1138;-86
2020/12/29 02:27:04;333181.00;1.11;574.95;89894.00;0.30;156.12;;;;;7.90;1.00;;;;;;2284800;60;1620;-85
2020/12/29 02:29:33;336522.00;1.12;580.70;82681.00;0.28;143.67;;;;;7.70;1.00;;;;;;2285302;60;1081;-86
2020/12/29 02:32:00;304195.00;1.01;525.13;83321.00;0.28;144.77;;;;;7.70;1.00;;;;;;2281549;60;1169;-86
2020/12/29 02:34:27;282790.00;0.94;488.33;85240.00;0.28;148.09;;;;;7.70;1.00;;;;;;2278228;61;1063;-86
2020/12/29 02:36:54;302104.00;1.01;521.54;85112.00;0.28;147.87;;;;;7.80;1.00;;;;;;2278189;60;1045;-86
2020/12/29 02:39:20;302822.00;1.01;522.77;85413.00;0.28;148.39;;;;;7.90;1.00;;;;;;2285163;60;1664;-86
2020/12/29 02:41:48;320752.00;1.07;553.59;87754.00;0.29;152.43;;;;;7.70;1.00;;;;;;2281503;60;1909;-84
2020/12/29 02:44:20;236129.00;0.79;408.09;68715.00;0.23;119.54;;;;;7.50;1.00;;;;;;2281498;60;1136;-86
2020/12/29 02:46:48;354813.00;1.18;612.13;90133.00;0.30;156.54;;;;;7.50;1.00;;;;;;2281361;61;1002;-84
2020/12/29 02:49:15;424863.00;1.42;732.55;92728.00;0.31;161.02;;;;;7.00;1.00;;;;;;2281484;60;1511;-86
2020/12/29 02:51:42;405268.00;1.35;698.86;89731.00;0.30;155.84;;;;;6.90;1.00;;;;;;2281244;60;1054;-85
2020/12/29 02:54:09;525694.00;1.75;906.07;88262.00;0.29;153.31;;;;;7.10;1.00;;;;;;2285278;60;1122;-84
2020/12/29 02:56:36;537094.00;1.79;925.72;84164.00;0.28;146.23;;;;;7.40;1.00;;;;;;2285268;60;1028;-85
2020/12/29 02:59:03;473016.00;1.58;815.38;88473.00;0.29;153.67;;;;;7.40;1.00;;;;;;2281427;60;1405;-85
2020/12/29 03:01:30;551819.00;1.84;951.10;82953.00;0.28;144.14;;;;;7.40;1.00;;;;;;2285234;60;1986;-85
2020/12/29 03:03:56;532156.00;1.77;917.21;78797.00;0.26;136.96;;;;;7.60;1.00;;;;;;2285253;60;1101;-85
2020/12/29 03:06:23;565168.00;1.88;974.11;96540.00;0.32;167.60;;;;;7.70;1.00;;;;;;2285278;60;993;-86
2020/12/29 03:08:50;528116.00;1.76;910.25;85615.00;0.29;148.74;;;;;7.70;1.00;;;;;;2285137;60;1417;-84
2020/12/29 03:11:23;495006.00;1.65;853.23;79393.00;0.26;137.99;;;;;7.80;1.00;;;;;;2278043;61;1133;-85
2020/12/29 03:13:49;395543.00;1.32;682.14;79411.00;0.26;138.02;;;;;8.10;1.00;;;;;;2281357;60;1055;-86
2020/12/29 03:16:16;462318.00;1.54;796.97;90198.00;0.30;156.65;;;;;8.50;1.00;;;;;;2281286;60;1032;-85
2020/12/29 03:18:43;523811.00;1.75;902.83;83133.00;0.28;144.45;;;;;8.10;1.00;;;;;;2285049;60;1397;-87
2020/12/29 03:21:09;602191.00;2.01;1038.00;85629.00;0.29;148.76;;;;;8.20;1.00;;;;;;2285024;60;1906;-85
2020/12/29 03:23:36;487748.00;1.63;840.73;83557.00;0.28;145.18;;;;;7.70;1.00;;;;;;2285121;60;1129;-85
2020/12/29 03:26:02;597855.00;1.99;1030.52;93868.00;0.31;162.99;;;;;7.60;1.00;;;;;;2284984;60;1089;-85
2020/12/29 03:28:29;490401.00;1.63;845.30;87866.00;0.29;152.62;;;;;7.70;1.00;;;;;;2272381;61;1313;-84
2020/12/29 03:30:56;426654.00;1.42;735.63;87833.00;0.29;152.57;;;;;7.60;1.00;;;;;;2265773;61;1188;-85
2020/12/29 03:33:23;548061.00;1.83;944.62;86157.00;0.29;149.67;;;;;7.70;1.00;;;;;;2268860;61;1188;-84
2020/12/29 03:35:49;657534.00;2.19;1133.67;86091.00;0.29;149.56;;;;;7.40;1.00;;;;;;2268356;61;1065;-85
2020/12/29 03:38:16;582011.00;1.94;1003.17;79193.00;0.26;137.64;;;;;7.00;1.00;;;;;;2268291;61;1339;-84
2020/12/29 03:40:42;527009.00;1.76;908.34;83915.00;0.28;145.80;;;;;7.20;1.00;;;;;;2264995;61;1916;-84
2020/12/29 03:43:12;504714.00;1.68;869.94;89640.00;0.30;155.69;;;;;7.30;1.00;;;;;;2268373;61;1153;-84
2020/12/29 03:45:40;510751.00;1.70;880.34;87421.00;0.29;151.85;;;;;7.30;1.00;;;;;;2266583;61;1097;-85
2020/12/29 03:48:07;583700.00;1.95;1006.08;84525.00;0.28;146.85;;;;;7.00;1.00;;;;;;2277110;61;1493;-85
2020/12/29 03:50:35;273624.00;0.91;472.58;0.00;0.00;0.62;;;;;7.50;1.00;;;;;;2280530;61;962;-85
2020/12/29 03:53:01;372515.00;1.24;642.56;0.00;0.00;0.62;;;;;7.20;1.00;;;;;;2277709;61;1082;-84
2020/12/29 03:55:28;367673.00;1.23;634.24;0.00;0.00;0.62;;;;;7.40;1.00;;;;;;2281215;60;1074;-84
2020/12/29 03:57:54;361852.00;1.21;624.23;0.00;0.00;0.62;;;;;7.50;1.00;;;;;;2274554;60;1375;-84
2020/12/29 04:00:20;330715.00;1.10;570.72;0.00;0.00;0.62;;;;;7.50;1.00;;;;;;2277889;60;1026;-83
2020/12/29 04:02:47;407289.00;1.36;702.34;0.00;0.00;0.62;;;;;7.10;1.00;;;;;;2277787;60;2013;-83
2020/12/29 04:05:13;647915.00;2.16;1117.03;106390.00;0.35;184.60;;;;;6.90;1.00;;;;;;2277866;60;1080;-84
2020/12/29 04:07:41;486444.00;1.62;838.49;67298.00;0.22;117.09;;;;;7.30;1.00;;;;;;2277856;61;1422;-85
2020/12/29 04:10:08;117823072.00;392.74;66255772.00;19745.00;0.07;34.83;;;;;7.10;1.00;;;;;;2281199;60;1013;-84
2020/12/29 04:12:34;346509.00;1.16;597.86;0.00;0.00;0.62;;;;;7.40;1.00;;;;;;2281194;61;1131;-84
2020/12/29 04:15:01;420964.00;1.40;725.85;9624.00;0.03;17.30;;;;;7.80;1.00;;;;;;2284968;60;1132;-85
2020/12/29 04:17:33;316127.00;1.05;545.64;0.00;0.00;0.62;;;;;7.80;1.00;;;;;;2284921;60;1383;-85
2020/12/29 04:20:00;335568.00;1.12;579.06;0.00;0.00;0.62;;;;;7.90;1.00;;;;;;2284887;60;1099;-85
2020/12/29 04:22:30;327325.00;1.09;564.89;0.00;0.00;0.62;;;;;7.90;1.00;;;;;;2284980;60;1996;-85
2020/12/29 04:24:57;245660.00;0.82;424.49;0.00;0.00;0.62;;;;;7.80;1.00;;;;;;2274554;60;1009;-85
2020/12/29 04:27:24;199264.00;0.66;344.66;0.00;0.00;0.62;;;;;7.80;1.00;;;;;;2281184;60;1331;-85
2020/12/29 04:29:51;175361.00;0.58;303.50;0.00;0.00;0.62;;;;;7.80;1.00;;;;;;2276324;61;1011;-85
2020/12/29 04:32:17;243686.00;0.81;421.09;0.00;0.00;0.62;;;;;7.80;1.00;;;;;;2269544;61;1129;-85
2020/12/29 04:34:45;374450.00;1.25;645.89;0.00;0.00;0.62;;;;;7.60;1.00;;;;;;2269670;61;1100;-86
2020/12/29 04:37:11;317820.00;1.06;548.55;0.00;0.00;0.62;;;;;7.70;1.00;;;;;;2272941;61;1447;-86
2020/12/29 04:39:38;299391.00;1.00;516.87;0.00;0.00;0.62;;;;;7.60;1.00;;;;;;2272965;61;1035;-85
2020/12/29 04:42:13;265699.00;0.89;458.95;0.00;0.00;0.62;;;;;8.10;1.00;;;;;;2269546;61;2004;-86
2020/12/29 04:44:40;51489.00;0.17;89.76;0.00;0.00;0.62;;;;;7.70;1.00;;;;;;2272746;61;1134;-86
2020/12/29 04:47:08;158679.00;0.53;274.76;0.00;0.00;0.62;;;;;7.60;1.00;;;;;;2276288;61;1448;-86
2020/12/29 04:49:35;229120.00;0.76;396.03;0.00;0.00;0.62;;;;;7.30;1.00;;;;;;2276318;61;1104;-85
2020/12/29 04:52:06;133467.00;0.44;231.31;0.00;0.00;0.62;;;;;7.30;1.00;;;;;;2272879;61;1038;-84
2020/12/29 04:54:34;243978.00;0.81;421.59;0.00;0.00;0.62;;;;;7.00;1.00;;;;;;2274693;60;963;-85
2020/12/29 04:57:02;121815.00;0.41;211.21;0.00;0.00;0.62;;;;;7.00;1.00;;;;;;2284803;60;1257;-85
2020/12/29 04:59:30;211983.00;0.71;366.55;0.00;0.00;0.62;;;;;6.90;1.00;;;;;;2277801;61;1053;-85
2020/12/29 05:01:57;153865.00;0.51;266.47;0.00;0.00;0.62;;;;;6.40;1.00;;;;;;2277722;60;2010;-84
2020/12/29 05:04:25;118692.00;0.40;205.83;0.00;0.00;0.62;;;;;6.30;1.00;;;;;;2281090;61;1085;-84
2020/12/29 05:06:52;138538.00;0.46;240.05;0.00;0.00;0.62;;;;;6.40;1.00;;;;;;2281122;61;1049;-84
2020/12/29 05:09:19;176057.00;0.59;304.70;0.00;0.00;0.62;;;;;6.60;1.00;;;;;;2277715;60;1482;-85
2020/12/29 05:11:47;69271.00;0.23;120.50;0.00;0.00;0.62;;;;;6.50;1.00;;;;;;2274455;60;1128;-84
2020/12/29 05:14:14;50651.00;0.17;88.31;0.00;0.00;0.62;;;;;6.70;1.00;;;;;;2272178;61;1031;-85
2020/12/29 05:16:41;203370.00;0.68;351.72;0.00;0.00;0.62;;;;;7.10;1.00;;;;;;2272244;61;1028;-85
2020/12/29 05:19:10;224087.00;0.75;387.38;0.00;0.00;0.62;;;;;7.40;1.00;;;;;;2268749;61;1326;-86
2020/12/29 05:21:38;34315.00;0.11;60.05;0.00;0.00;0.62;;;;;7.30;1.00;;;;;;2272162;61;1976;-86
2020/12/29 05:24:12;70113.00;0.23;121.96;0.00;0.00;0.62;;;;;7.70;1.00;;;;;;2265535;61;1090;-86
2020/12/29 05:26:39;16318.00;0.05;28.89;0.00;0.00;0.62;;;;;7.50;1.00;;;;;;2265522;61;1044;-86
2020/12/29 05:29:07;101205.00;0.34;175.65;0.00;0.00;0.62;;;;;7.80;1.00;;;;;;2265398;61;1392;-86
2020/12/29 05:31:36;154363.00;0.51;267.33;0.00;0.00;0.62;;;;;7.90;1.00;;;;;;2268026;60;978;-86
2020/12/29 05:34:04;74243.00;0.25;129.09;0.00;0.00;0.62;;;;;8.00;1.00;;;;;;2284713;60;1036;-86
2020/12/29 05:36:36;117658.00;0.39;204.04;0.00;0.00;0.62;;;;;8.20;1.00;;;;;;2280900;61;1065;-86
2020/12/29 05:39:08;13837.00;0.05;24.60;0.00;0.00;0.62;;;;;8.40;1.00;;;;;;2284636;60;1408;-85
2020/12/29 05:41:41;59917.00;0.20;104.33;0.00;0.00;0.62;;;;;7.90;1.00;;;;;;2274293;60;1915;-86
2020/12/29 05:44:09;2355.00;0.01;4.70;0.00;0.00;0.62;;;;;7.80;1.00;;;;;;2284660;60;1062;-86
2020/12/29 05:46:36;209541.00;0.70;362.35;13093.00;0.04;23.31;;;;;7.70;1.00;;;;;;2277626;61;1138;-87
2020/12/29 05:49:05;0.00;0.00;0.62;0.00;0.00;0.62;;;;;8.20;1.00;;;;;;2284706;60;1410;-86
2020/12/29 05:51:34;97221.00;0.32;168.77;22846.00;0.08;40.20;;;;;8.40;1.00;;;;;;2280955;60;1196;-86
2020/12/29 05:54:03;0.00;0.00;0.62;0.00;0.00;0.62;;;;;8.50;1.00;;;;;;2277675;61;996;-87
2020/12/29 05:56:31;0.00;0.00;0.62;0.00;0.00;0.62;;;;;8.40;1.00;;;;;;2277901;61;1126;-87
2020/12/29 05:58:59;0.00;0.00;0.62;0.00;0.00;0.62;;;;;8.40;1.00;;;;;;2278300;60;1461;-85
2020/12/29 06:01:42;43548.00;0.15;76.03;0.00;0.00;0.62;;;;;8.10;1.00;;;;;;2281575;60;1919;-85
2020/12/29 06:04:10;93278.00;0.31;161.97;0.00;0.00;0.62;;;;;8.20;1.00;;;;;;2285420;60;1117;-85
2020/12/29 06:06:38;18072.00;0.06;31.93;0.00;0.00;0.62;;;;;7.90;1.00;;;;;;2285394;60;1141;-85
2020/12/29 06:09:07;0.00;0.00;0.62;0.00;0.00;0.62;;;;;7.50;1.00;;;;;;2285371;60;1329;-85
2020/12/29 06:11:39;18471.00;0.06;32.62;0.00;0.00;0.62;;;;;6.90;1.00;;;;;;2285389;60;1166;-85
2020/12/29 06:14:12;0.00;0.00;0.62;0.00;0.00;0.62;;;;;6.70;1.00;;;;;;2285394;60;1092;-85
2020/12/29 06:16:40;2508.00;0.01;4.97;0.00;0.00;0.62;;;;;6.40;1.00;;;;;;2285382;60;1082;-84
2020/12/29 06:19:19;83141.00;0.28;144.46;0.00;0.00;0.62;;;;;6.40;1.00;;;;;;2281567;60;1440;-84
2020/12/29 06:21:53;34177.00;0.11;59.81;0.00;0.00;0.62;;;;;6.70;1.00;;;;;;2285327;60;1991;-83
2020/12/29 06:24:21;26203.00;0.09;46.01;0.00;0.00;0.62;;;;;6.70;1.00;;;;;;2278202;61;1084;-86
2020/12/29 06:26:52;285171.00;0.95;492.43;0.00;0.00;0.62;;;;;7.10;1.00;;;;;;2281580;60;1087;-85
2020/12/29 06:29:22;122409.00;0.41;212.24;0.00;0.00;0.62;;;;;7.00;1.00;;;;;;2278217;60;1431;-85
2020/12/29 06:31:51;124258.00;0.41;215.43;0.00;0.00;0.62;;;;;7.10;1.00;;;;;;2281580;61;994;-86
2020/12/29 06:34:20;92282.00;0.31;160.25;0.00;0.00;0.62;;;;;7.90;1.00;;;;;;2274855;60;1037;-85
2020/12/29 06:36:50;348241.00;1.16;600.84;0.00;0.00;0.62;;;;;8.20;1.00;;;;;;2285285;60;1842;-86
2020/12/29 06:39:18;390864.00;1.30;674.10;0.00;0.00;0.62;;;;;8.10;1.00;;;;;;2285277;60;1503;-86
2020/12/29 06:41:45;258188.00;0.86;446.03;0.00;0.00;0.62;;;;;8.30;1.00;;;;;;2278208;60;2000;-85
2020/12/29 06:44:13;374078.00;1.25;645.25;80505.00;0.27;139.91;;;;;8.30;1.00;;;;;;2281453;60;1165;-86
2020/12/29 06:46:40;505429.00;1.68;871.17;92087.00;0.31;159.91;;;;;8.10;1.00;;;;;;2281496;60;1121;-86
2020/12/29 06:49:21;406187.00;1.35;700.44;86625.00;0.29;150.48;;;;;7.60;1.00;;;;;;2278142;60;1503;-86
2020/12/29 06:52:08;331121.00;1.10;571.41;0.00;0.00;0.62;;;;;8.00;1.00;;;;;;2281508;60;1037;-84
2020/12/29 06:54:46;74390.00;0.25;129.35;0.00;0.00;0.62;;;;;8.30;1.00;;;;;;2278157;60;1148;-85
2020/12/29 06:57:13;222294.00;0.74;384.29;19130.00;0.06;33.76;;;;;8.20;1.00;;;;;;2285238;60;1486;-86
2020/12/29 06:59:40;252161.00;0.84;435.67;0.00;0.00;0.62;;;;;8.20;1.00;;;;;;2278156;60;1125;-86
2020/12/29 07:02:19;160533.00;0.54;277.96;0.00;0.00;0.62;;;;;7.70;1.00;;;;;;2278081;60;1992;-85
2020/12/29 07:04:52;0.00;0.00;0.62;0.00;0.00;0.62;;;;;8.00;1.00;;;;;;2278141;60;1056;-86
2020/12/29 07:07:29;4559.00;0.02;8.52;0.00;0.00;0.62;;;;;8.60;1.00;;;;;;2281311;60;1315;-85
2020/12/29 07:10:11;228674.00;0.76;395.27;0.00;0.00;0.62;;;;;8.80;1.00;;;;;;2274812;60;1029;-85
2020/12/29 07:12:42;77666.00;0.26;135.01;0.00;0.00;0.62;;;;;8.50;1.00;;;;;;2281455;61;1122;-86
2020/12/29 07:15:09;0.00;0.00;0.62;0.00;0.00;0.62;;;;;8.70;1.00;;;;;;2285191;60;1062;-86
2020/12/29 07:17:36;0.00;0.00;0.62;0.00;0.00;0.62;;;;;8.60;1.00;;;;;;2278095;60;1367;-85
2020/12/29 07:20:16;0.00;0.00;0.62;0.00;0.00;0.62;;;;;8.50;1.00;;;;;;2285205;60;973;-87
2020/12/29 07:22:44;0.00;0.00;0.62;0.00;0.00;0.62;;;;;8.20;1.00;;;;;;2281362;60;1915;-86
2020/12/29 07:25:11;62937.00;0.21;109.55;0.00;0.00;0.62;;;;;8.30;1.00;;;;;;2281401;60;1030;-86
2020/12/29 07:27:40;0.00;0.00;0.62;0.00;0.00;0.62;;;;;8.30;1.00;;;;;;2276479;61;1333;-87
2020/12/29 07:30:10;7674.00;0.03;13.92;0.00;0.00;0.62;;;;;8.40;1.00;;;;;;2276584;61;1097;-86
2020/12/29 07:32:36;0.00;0.00;0.62;0.00;0.00;0.62;;;;;8.90;1.00;;;;;;2273168;61;1043;-85
2020/12/29 07:35:03;0.00;0.00;0.62;0.00;0.00;0.62;;;;;9.10;1.00;;;;;;2273176;61;1092;-86
2020/12/29 07:37:33;44420.00;0.15;77.53;0.00;0.00;0.62;;;;;9.30;1.00;;;;;;2273137;61;1430;-86
2020/12/29 07:40:00;0.00;0.00;0.62;0.00;0.00;0.62;;;;;9.60;1.00;;;;;;2273144;61;957;-87
2020/12/29 07:42:26;0.00;0.00;0.62;0.00;0.00;0.62;;;;;9.50;1.00;;;;;;2273118;61;1996;-86
2020/12/29 07:44:53;0.00;0.00;0.62;0.00;0.00;0.62;;;;;9.70;1.00;;;;;;2278021;61;1141;-86
2020/12/29 07:47:19;13790.00;0.05;24.51;0.00;0.00;0.62;;;;;9.70;1.00;;;;;;2285073;60;1408;-86
2020/12/29 07:49:46;0.00;0.00;0.62;0.00;0.00;0.62;;;;;9.60;1.00;;;;;;2281295;61;1017;-85
2020/12/29 07:52:22;0.00;0.00;0.62;0.00;0.00;0.62;;;;;9.20;1.00;;;;;;2285057;60;969;-86
2020/12/29 07:55:09;0.00;0.00;0.62;0.00;0.00;0.62;;;;;9.30;1.00;;;;;;2281262;60;1125;-86
2020/12/29 07:57:35;0.00;0.00;0.62;0.00;0.00;0.62;;;;;9.10;1.00;;;;;;2284944;60;1308;-86
2020/12/29 08:00:07;0.00;0.00;0.62;0.00;0.00;0.62;;;;;8.50;1.00;;;;;;2285065;60;969;-86
2020/12/29 08:02:33;0.00;0.00;0.62;0.00;0.00;0.62;;;;;8.60;1.00;;;;;;2274556;60;1990;-86
2020/12/29 08:05:00;0.00;0.00;0.62;0.00;0.00;0.62;;;;;8.10;1.00;;;;;;2281304;60;1135;-86
2020/12/29 08:07:27;0.00;0.00;0.62;0.00;0.00;0.62;;;;;8.50;1.00;;;;;;2277916;60;1385;-86
2020/12/29 08:09:54;0.00;0.00;0.62;0.00;0.00;0.62;;;;;8.80;1.00;;;;;;2277912;61;1111;-87
2020/12/29 08:12:21;74766.00;0.25;130.00;0.00;0.00;0.62;;;;;8.50;1.00;;;;;;2281215;60;1145;-86
2020/12/29 08:14:48;0.00;0.00;0.62;0.00;0.00;0.62;;;;;8.30;1.00;;;;;;2277924;60;1023;-86
2020/12/29 08:17:14;0.00;0.00;0.62;0.00;0.00;0.62;;;;;8.40;1.00;;;;;;2281193;60;1488;-85
2020/12/29 08:19:41;0.00;0.00;0.62;0.00;0.00;0.62;;;;;8.00;1.00;;;;;;2281069;61;987;-86
2020/12/29 08:22:09;96840.00;0.32;168.12;29173.00;0.10;51.15;;;;;8.00;1.00;;;;;;2277801;61;2002;-85
2020/12/29 08:24:36;0.00;0.00;0.62;0.00;0.00;0.62;;;;;8.50;1.00;;;;;;2277901;61;1038;-86
2020/12/29 08:27:03;31286.00;0.10;54.81;0.00;0.00;0.62;;;;;8.50;1.00;;;;;;2281176;61;1382;-86
2020/12/29 08:29:32;0.00;0.00;0.62;0.00;0.00;0.62;;;;;8.90;1.00;;;;;;2281197;60;1125;-86
2020/12/29 08:32:06;0.00;0.00;0.62;0.00;0.00;0.62;;;;;9.10;1.00;;;;;;2277832;60;1016;-86
2020/12/29 08:34:34;0.00;0.00;0.62;0.00;0.00;0.62;;;;;9.20;1.00;;;;;;2277831;60;1135;-86
2020/12/29 08:37:03;0.00;0.00;0.62;0.00;0.00;0.62;;;;;8.80;1.00;;;;;;2281207;60;1096;-86
2020/12/29 08:39:47;0.00;0.00;0.62;0.00;0.00;0.62;;;;;8.70;1.00;;;;;;2284964;60;1090;-86
2020/12/29 08:42:18;0.00;0.00;0.62;0.00;0.00;0.62;;;;;8.50;1.00;;;;;;2284857;60;2019;-86
2020/12/29 08:44:46;0.00;0.00;0.62;0.00;0.00;0.62;;;;;8.70;1.00;;;;;;2284804;60;1129;-86
2020/12/29 08:47:14;0.00;0.00;0.62;0.00;0.00;0.62;;;;;8.60;1.00;;;;;;2277795;60;1354;-85
2020/12/29 08:49:41;0.00;0.00;0.62;0.00;0.00;0.62;;;;;8.20;1.00;;;;;;2277729;61;960;-86
2020/12/29 08:52:08;99819.00;0.33;173.26;0.00;0.00;0.62;;;;;7.80;1.00;;;;;;2281074;60;969;-85
2020/12/29 08:54:37;36249.00;0.12;63.40;0.00;0.00;0.62;;;;;7.90;1.00;;;;;;2281123;60;1153;-86
2020/12/29 08:57:06;0.00;0.00;0.62;0.00;0.00;0.62;;;;;8.30;1.00;;;;;;2281060;60;1346;-86
2020/12/29 08:59:38;0.00;0.00;0.62;0.00;0.00;0.62;;;;;8.40;1.00;;;;;;2277763;61;1092;-87
2020/12/29 09:02:04;0.00;0.00;0.62;0.00;0.00;0.62;;;;;8.20;1.00;;;;;;2281022;61;2008;-86
2020/12/29 09:04:33;0.00;0.00;0.62;0.00;0.00;0.62;;;;;8.30;1.00;;;;;;2277757;60;1148;-86
2020/12/29 09:07:05;76915.00;0.26;133.71;0.00;0.00;0.62;;;;;8.20;1.00;;;;;;2281103;61;1057;-86
2020/12/29 09:09:33;26724.00;0.09;46.91;0.00;0.00;0.62;;;;;7.40;1.00;;;;;;2277785;60;1167;-85
2020/12/29 09:12:16;0.00;0.00;0.62;0.00;0.00;0.62;;;;;7.50;1.00;;;;;;2281010;61;1172;-86
2020/12/29 09:14:54;0.00;0.00;0.62;0.00;0.00;0.62;;;;;8.20;1.00;;;;;;2284822;60;916;-85
2020/12/29 09:17:22;0.00;0.00;0.62;0.00;0.00;0.62;;;;;8.50;1.00;;;;;;2277685;61;1349;-85
2020/12/29 09:20:12;72084.00;0.24;125.36;0.00;0.00;0.62;;;;;8.80;1.00;;;;;;2284817;60;1098;-86
2020/12/29 09:23:03;0.00;0.00;0.62;0.00;0.00;0.62;;;;;9.00;1.00;;;;;;2274377;60;2000;-86
2020/12/29 09:25:32;0.00;0.00;0.62;0.00;0.00;0.62;;;;;8.70;1.00;;;;;;2281573;60;1153;-86
2020/12/29 09:28:15;52574.00;0.18;91.64;0.00;0.00;0.62;;;;;8.80;1.00;;;;;;2284794;60;1438;-86
2020/12/29 09:30:44;0.00;0.00;0.62;0.00;0.00;0.62;;;;;8.60;1.00;;;;;;2281362;60;1031;-87
2020/12/29 09:33:11;15133.00;0.05;26.84;0.00;0.00;0.62;;;;;8.80;1.00;;;;;;2278472;60;1001;-86
2020/12/29 09:35:38;0.00;0.00;0.62;0.00;0.00;0.62;;;;;8.70;1.00;;;;;;2281753;60;1118;-86
2020/12/29 09:38:04;144191.00;0.48;249.80;41911.00;0.14;73.19;;;;;8.30;1.00;;;;;;2285455;60;1321;-87
2020/12/29 09:40:31;54222.00;0.18;94.49;0.00;0.00;0.62;;;;;8.50;1.00;;;;;;2285390;60;1121;-85
2020/12/29 09:42:57;0.00;0.00;0.62;0.00;0.00;0.62;;;;;8.80;1.00;;;;;;2278292;60;2006;-86
2020/12/29 09:45:25;0.00;0.00;0.62;0.00;0.00;0.62;;;;;9.00;1.00;;;;;;2281675;60;1064;-86
2020/12/29 09:47:53;0.00;0.00;0.62;0.00;0.00;0.62;;;;;8.90;1.00;;;;;;2281648;60;1325;-86
2020/12/29 09:50:19;0.00;0.00;0.62;0.00;0.00;0.62;;;;;8.40;1.00;;;;;;2274947;60;1058;-85
2020/12/29 09:52:46;0.00;0.00;0.62;0.00;0.00;0.62;;;;;8.40;1.00;;;;;;2281607;60;1008;-86
2020/12/29 09:55:12;125.00;0.00;0.84;0.00;0.00;0.62;;;;;8.60;1.00;;;;;;2285354;60;934;-87
2020/12/29 09:57:39;17715.00;0.06;31.31;0.00;0.00;0.62;;;;;8.60;1.00;;;;;;2278249;60;1419;-85
2020/12/29 10:00:07;0.00;0.00;0.62;0.00;0.00;0.62;;;;;8.10;1.00;;;;;;2278290;60;1026;-84
2020/12/29 10:02:34;0.00;0.00;0.62;0.00;0.00;0.62;;;;;7.50;1.00;;;;;;2281599;60;1927;-85
2020/12/29 10:05:01;0.00;0.00;0.62;0.00;0.00;0.62;;;;;7.60;1.00;;;;;;2278212;60;983;-87
2020/12/29 10:07:27;0.00;0.00;0.62;0.00;0.00;0.62;;;;;8.00;1.00;;;;;;2285347;60;1488;-87
2020/12/29 10:09:54;28806.00;0.10;50.52;0.00;0.00;0.62;;;;;8.30;1.00;;;;;;2285332;60;1150;-86
2020/12/29 10:12:21;16927.00;0.06;29.95;0.00;0.00;0.62;;;;;8.40;1.00;;;;;;2285385;60;1064;-86
2020/12/29 10:14:48;38814.00;0.13;67.84;0.00;0.00;0.62;;;;;8.70;1.00;;;;;;2285309;60;1121;-85
2020/12/29 10:17:14;0.00;0.00;0.62;0.00;0.00;0.62;;;;;8.00;1.00;;;;;;2285211;60;1430;-86
2020/12/29 10:19:41;0.00;0.00;0.62;0.00;0.00;0.62;;;;;7.80;1.00;;;;;;2278205;60;1017;-86
2020/12/29 10:22:08;0.00;0.00;0.62;0.00;0.00;0.62;;;;;8.00;1.00;;;;;;2285288;60;1990;-87